Terminal Aerodrome Forecast
Issued by NWS Lake Charles, LA

Home | Current Version | Previous Version | Text Only | Print | Product List | Glossary On
Versions: 1 2 3 4 5 6 7 8 9 10 11 12 13 14 15 16 17
000
FTUS44 KLCH 200500
TAFAEX
TAF
KAEX 200520Z 2006/2106 05003KT P6SM SKC
      TEMPO 2009/2013 3SM BR
     FM201500 08010KT P6SM FEW040
     FM210000 00000KT P6SM SKC=

USA.gov is the U.S. government's official web portal to all federal, state and local government web resources and services.